Skip to main content

Nelas

ID 1210685 · 40.5167, -7.8500 map

Latest reading · 2026-05-09 19:00 (Europe/Lisbon)

Temperature
11.3 °C
Humidity
91 %
Pressure
Precipitation
0.8 mm
Radiation
179 W/m²
Wind speed
10.8 km/h
Wind direction
SW · South-west

24-hour history

Time (Europe/Lisbon) Temp Humidity Pressure Rain Wind Dir
2026-05-09 19:00 11.3 °C 91 % 0.8 mm 10.8 km/h SW
2026-05-09 18:00 11.5 °C 94 % 2.6 mm 6.5 km/h SW
2026-05-09 17:00 12.9 °C 80 % 1.1 mm 16.9 km/h W
2026-05-09 16:00 15.9 °C 78 % 0.1 mm 21.6 km/h S
2026-05-09 15:00 15.2 °C 76 % 1.3 mm 6.5 km/h SW
2026-05-09 14:00 15.7 °C 71 % 0.0 mm 14.8 km/h S
2026-05-09 13:00 15.8 °C 70 % 0.0 mm 16.9 km/h S
2026-05-09 12:00 14.3 °C 75 % 0.0 mm 16.9 km/h S
2026-05-09 11:00 12.6 °C 83 % 0.4 mm 11.2 km/h S
2026-05-09 10:00 14.2 °C 65 % 0.0 mm 12.6 km/h S
2026-05-09 09:00 14.1 °C 68 % 0.0 mm 11.9 km/h S
2026-05-09 08:00 12.2 °C 80 % 0.0 mm 11.5 km/h SE
2026-05-09 07:00 11.7 °C 79 % 0.0 mm 0.7 km/h SE
2026-05-09 06:00 12.1 °C 77 % 0.0 mm 2.9 km/h S
2026-05-09 05:00 12.2 °C 76 % 0.0 mm 14.4 km/h S
2026-05-09 04:00 12.4 °C 77 % 0.0 mm 9.0 km/h S
2026-05-09 03:00 13.1 °C 75 % 0.0 mm 12.2 km/h SE
2026-05-09 02:00 12.6 °C 76 % 0.0 mm 12.2 km/h SE
2026-05-09 01:00 13.3 °C 70 % 0.0 mm 0.7 km/h W
2026-05-09 00:00 13.5 °C 67 % 0.0 mm 5.8 km/h S
2026-05-08 23:00 14.2 °C 61 % 0.0 mm 2.5 km/h E
2026-05-08 22:00 14.4 °C 61 % 0.0 mm 4.7 km/h NE
2026-05-08 21:00 14.8 °C 61 % 0.0 mm 7.6 km/h NE
2026-05-08 20:00 16.7 °C 54 % 0.0 mm 5.8 km/h E